DLH643 KLAX-KSEA
Flight info
| Callsign | DLH643 |
|---|---|
| Flight time | 2h 2m |
| Altitude | 38000 |
| Route | LADYJ4 CSTRO DCT SHIMR DCT LKV HAWKZ8 |
| Aircraft | A346/H-SDE2E3FGHIJ3J4J5M1RWXY/LB1D1 |
Departure
| Time | 2026-04-21 22:24 |
|---|---|
| Airport | Los Angeles International Airport (KLAX) |
Arrival
| Time | 2026-04-22 00:26 |
|---|---|
| Airport | Seattle–Tacoma International Airport (KSEA) |
| Time | Latitude | Longitude | Altitude | Speed | Heading |
|---|---|---|---|---|---|
| 2026-04-21 21:49 | 33.94392 | -118.41618 | 131 ft | 0 kts | 83° |
| 2026-04-21 22:10 | 33.94391 | -118.41636 | 130 ft | 4 kts | 83° |
| 2026-04-21 22:10 | 33.94388 | -118.41663 | 127 ft | 4 kts | 70° |
| 2026-04-21 22:10 | 33.94380 | -118.41678 | 127 ft | 4 kts | 28° |
| 2026-04-21 22:10 | 33.94367 | -118.41680 | 127 ft | 4 kts | 347° |
| 2026-04-21 22:11 | 33.94341 | -118.41671 | 133 ft | 4 kts | 343° |
| 2026-04-21 22:11 | 33.94319 | -118.41665 | 130 ft | 1 kts | 352° |
| 2026-04-21 22:11 | 33.94318 | -118.41665 | 134 ft | 0 kts | 352° |
| 2026-04-21 22:18 | 33.94323 | -118.41666 | 131 ft | 4 kts | 345° |
| 2026-04-21 22:19 | 33.94358 | -118.41719 | 129 ft | 12 kts | 299° |
| 2026-04-21 22:19 | 33.94436 | -118.41783 | 131 ft | 17 kts | 343° |
| 2026-04-21 22:19 | 33.94573 | -118.41807 | 132 ft | 22 kts | 353° |
| 2026-04-21 22:19 | 33.94703 | -118.41799 | 132 ft | 17 kts | 45° |
| 2026-04-21 22:20 | 33.94742 | -118.41654 | 134 ft | 20 kts | 82° |
| 2026-04-21 22:20 | 33.94761 | -118.41480 | 126 ft | 22 kts | 82° |
| 2026-04-21 22:20 | 33.94794 | -118.41290 | 134 ft | 24 kts | 82° |
| 2026-04-21 22:20 | 33.94814 | -118.41084 | 132 ft | 26 kts | 83° |
| 2026-04-21 22:21 | 33.94837 | -118.40862 | 134 ft | 27 kts | 83° |
| 2026-04-21 22:21 | 33.94861 | -118.40635 | 134 ft | 28 kts | 83° |
| 2026-04-21 22:21 | 33.94886 | -118.40393 | 136 ft | 30 kts | 82° |
| 2026-04-21 22:21 | 33.94911 | -118.40142 | 132 ft | 30 kts | 83° |
| 2026-04-21 22:22 | 33.94944 | -118.39942 | 131 ft | 1 kts | 43° |
| 2026-04-21 22:23 | 33.94961 | -118.39927 | 125 ft | 15 kts | 27° |
| 2026-04-21 22:23 | 33.95038 | -118.39978 | 129 ft | 16 kts | 273° |
| 2026-04-21 22:23 | 33.95008 | -118.40279 | 134 ft | 73 kts | 263° |
| 2026-04-21 22:23 | 33.94914 | -118.41189 | 132 ft | 143 kts | 262° |
| 2026-04-21 22:24 | 33.94780 | -118.42564 | 458 ft | 175 kts | 261° |
| 2026-04-21 22:24 | 33.94650 | -118.44025 | 1366 ft | 174 kts | 260° |
| 2026-04-21 22:24 | 33.94522 | -118.45444 | 2393 ft | 164 kts | 259° |
| 2026-04-21 22:24 | 33.94400 | -118.46808 | 3239 ft | 168 kts | 261° |
| 2026-04-21 22:25 | 33.94329 | -118.48288 | 3752 ft | 184 kts | 263° |
| 2026-04-21 22:25 | 33.94267 | -118.49925 | 4445 ft | 207 kts | 265° |
| 2026-04-21 22:25 | 33.94149 | -118.51772 | 4870 ft | 237 kts | 262° |
| 2026-04-21 22:25 | 33.93992 | -118.53786 | 5002 ft | 249 kts | 262° |
| 2026-04-21 22:26 | 33.93832 | -118.55875 | 4998 ft | 250 kts | 262° |
| 2026-04-21 22:26 | 33.93667 | -118.57970 | 4991 ft | 252 kts | 262° |
| 2026-04-21 22:26 | 33.93499 | -118.60125 | 5327 ft | 265 kts | 263° |
| 2026-04-21 22:26 | 33.93695 | -118.62343 | 6392 ft | 267 kts | 286° |
| 2026-04-21 22:27 | 33.94703 | -118.64249 | 7168 ft | 279 kts | 311° |
| 2026-04-21 22:27 | 33.96311 | -118.65630 | 7730 ft | 287 kts | 323° |
| 2026-04-21 22:27 | 33.98035 | -118.66873 | 7991 ft | 290 kts | 327° |
| 2026-04-21 22:27 | 33.99957 | -118.67650 | 7993 ft | 296 kts | 347° |
| 2026-04-21 22:28 | 34.02006 | -118.67698 | 7999 ft | 300 kts | 359° |
| 2026-04-21 22:28 | 34.04092 | -118.67532 | 7992 ft | 300 kts | 0° |
| 2026-04-21 22:28 | 34.06174 | -118.67344 | 7986 ft | 300 kts | 0° |
| 2026-04-21 22:28 | 34.08252 | -118.67070 | 7981 ft | 303 kts | 5° |
| 2026-04-21 22:29 | 34.10379 | -118.66608 | 8333 ft | 318 kts | 7° |
| 2026-04-21 22:29 | 34.12562 | -118.66087 | 9525 ft | 318 kts | 8° |
| 2026-04-21 22:29 | 34.14720 | -118.65563 | 10809 ft | 317 kts | 7° |
| 2026-04-21 22:29 | 34.16933 | -118.65022 | 11627 ft | 333 kts | 6° |
| 2026-04-21 22:30 | 34.19238 | -118.64474 | 12284 ft | 351 kts | 5° |
| 2026-04-21 22:30 | 34.21706 | -118.63904 | 12917 ft | 370 kts | 2° |
| 2026-04-21 22:30 | 34.24304 | -118.63596 | 13537 ft | 382 kts | 353° |
| 2026-04-21 22:30 | 34.26987 | -118.63812 | 14146 ft | 391 kts | 343° |
| 2026-04-21 22:31 | 34.29714 | -118.64395 | 14684 ft | 406 kts | 340° |
| 2026-04-21 22:31 | 34.32516 | -118.65069 | 15478 ft | 414 kts | 340° |
| 2026-04-21 22:31 | 34.35363 | -118.65744 | 16409 ft | 420 kts | 340° |
| 2026-04-21 22:31 | 34.38246 | -118.66415 | 17400 ft | 424 kts | 340° |
| 2026-04-21 22:32 | 34.41161 | -118.67082 | 18446 ft | 428 kts | 339° |
| 2026-04-21 22:32 | 34.44075 | -118.67732 | 19177 ft | 435 kts | 340° |
| 2026-04-21 22:32 | 34.47083 | -118.68331 | 19959 ft | 441 kts | 341° |
| 2026-04-21 22:32 | 34.50135 | -118.68914 | 20732 ft | 447 kts | 341° |
| 2026-04-21 22:33 | 34.53226 | -118.69504 | 21492 ft | 453 kts | 341° |
| 2026-04-21 22:33 | 34.56360 | -118.70107 | 22233 ft | 459 kts | 341° |
| 2026-04-21 22:33 | 34.59531 | -118.70724 | 22979 ft | 465 kts | 341° |
| 2026-04-21 22:33 | 34.62746 | -118.71351 | 23715 ft | 471 kts | 340° |
| 2026-04-21 22:34 | 34.65995 | -118.71992 | 24324 ft | 476 kts | 340° |
| 2026-04-21 22:34 | 34.69250 | -118.72747 | 24962 ft | 474 kts | 335° |
| 2026-04-21 22:34 | 34.72350 | -118.73895 | 25553 ft | 470 kts | 329° |
| 2026-04-21 22:34 | 34.75340 | -118.75480 | 26153 ft | 465 kts | 322° |
| 2026-04-21 22:35 | 34.78184 | -118.77353 | 26771 ft | 466 kts | 320° |
| 2026-04-21 22:35 | 34.81015 | -118.79302 | 27382 ft | 470 kts | 319° |
| 2026-04-21 22:35 | 34.83872 | -118.81287 | 27988 ft | 475 kts | 319° |
| 2026-04-21 22:35 | 34.86759 | -118.83292 | 28545 ft | 480 kts | 319° |
| 2026-04-21 22:36 | 34.92628 | -118.87354 | 29733 ft | 489 kts | 319° |
| 2026-04-21 22:36 | 34.95551 | -118.89364 | 30522 ft | 487 kts | 319° |
| 2026-04-21 22:36 | 34.98490 | -118.91383 | 31407 ft | 482 kts | 319° |
| 2026-04-21 22:37 | 35.01395 | -118.93382 | 32379 ft | 477 kts | 319° |
| 2026-04-21 22:37 | 35.04271 | -118.95366 | 33323 ft | 472 kts | 319° |
| 2026-04-21 22:37 | 35.07107 | -118.97324 | 34241 ft | 465 kts | 319° |
| 2026-04-21 22:37 | 35.09905 | -118.99258 | 35067 ft | 459 kts | 319° |
| 2026-04-21 22:38 | 35.12674 | -119.01180 | 35763 ft | 457 kts | 319° |
| 2026-04-21 22:38 | 35.15440 | -119.03104 | 36293 ft | 457 kts | 320° |
| 2026-04-21 22:38 | 35.18212 | -119.05032 | 36762 ft | 459 kts | 320° |
| 2026-04-21 22:38 | 35.20962 | -119.06947 | 37174 ft | 463 kts | 320° |
| 2026-04-21 22:39 | 35.23780 | -119.08908 | 37451 ft | 468 kts | 320° |
| 2026-04-21 22:39 | 35.26624 | -119.10885 | 37788 ft | 472 kts | 321° |
| 2026-04-21 22:39 | 35.29486 | -119.12872 | 38014 ft | 474 kts | 321° |
| 2026-04-21 22:39 | 35.32359 | -119.14866 | 38015 ft | 475 kts | 321° |
| 2026-04-21 22:40 | 35.38117 | -119.18845 | 38052 ft | 477 kts | 322° |
| 2026-04-21 22:40 | 35.44158 | -119.22373 | 38040 ft | 485 kts | 328° |
| 2026-04-21 22:41 | 35.50527 | -119.25166 | 38084 ft | 494 kts | 334° |
| 2026-04-21 22:41 | 35.57203 | -119.27297 | 38066 ft | 496 kts | 336° |
| 2026-04-21 22:42 | 35.63927 | -119.29296 | 38075 ft | 497 kts | 337° |
| 2026-04-21 22:42 | 35.70653 | -119.31295 | 38070 ft | 497 kts | 337° |
| 2026-04-21 22:43 | 35.77335 | -119.33294 | 38074 ft | 497 kts | 337° |
| 2026-04-21 22:43 | 35.84075 | -119.35319 | 38075 ft | 500 kts | 337° |
| 2026-04-21 22:44 | 35.90841 | -119.37356 | 38058 ft | 500 kts | 337° |
| 2026-04-21 22:44 | 35.97610 | -119.39398 | 38060 ft | 500 kts | 337° |
| 2026-04-21 22:45 | 36.04348 | -119.41433 | 38064 ft | 504 kts | 336° |
| 2026-04-21 22:45 | 36.11172 | -119.43501 | 38064 ft | 505 kts | 337° |
| 2026-04-21 22:46 | 36.18003 | -119.45572 | 38077 ft | 505 kts | 337° |
| 2026-04-21 22:46 | 36.24852 | -119.47657 | 38090 ft | 507 kts | 337° |
| 2026-04-21 22:47 | 36.31665 | -119.49730 | 38084 ft | 508 kts | 337° |
| 2026-04-21 22:47 | 36.38524 | -119.51820 | 38130 ft | 508 kts | 337° |
| 2026-04-21 22:48 | 36.45419 | -119.53938 | 38072 ft | 512 kts | 338° |
| 2026-04-21 22:48 | 36.52333 | -119.56046 | 38057 ft | 511 kts | 338° |
| 2026-04-21 22:49 | 36.59188 | -119.58145 | 38085 ft | 511 kts | 338° |
| 2026-04-21 22:49 | 36.66112 | -119.60276 | 38060 ft | 513 kts | 338° |
| 2026-04-21 22:50 | 36.73049 | -119.62409 | 38061 ft | 513 kts | 338° |
| 2026-04-21 22:50 | 36.79983 | -119.64546 | 38066 ft | 513 kts | 338° |
| 2026-04-21 22:51 | 36.86868 | -119.66672 | 38061 ft | 513 kts | 338° |
| 2026-04-21 22:51 | 36.93801 | -119.68818 | 38053 ft | 513 kts | 338° |
| 2026-04-21 22:52 | 37.00713 | -119.70969 | 38042 ft | 510 kts | 338° |
| 2026-04-21 22:52 | 37.07575 | -119.73098 | 38021 ft | 507 kts | 338° |
| 2026-04-21 22:53 | 37.14425 | -119.75230 | 38012 ft | 507 kts | 338° |
| 2026-04-21 22:53 | 37.21218 | -119.77355 | 38022 ft | 508 kts | 339° |
| 2026-04-21 22:54 | 37.28082 | -119.79498 | 38017 ft | 508 kts | 339° |
| 2026-04-21 22:54 | 37.34946 | -119.81643 | 38018 ft | 508 kts | 339° |
| 2026-04-21 22:55 | 37.37327 | -119.82391 | 38018 ft | 509 kts | 339° |
| 2026-04-21 22:56 | 37.42352 | -119.83966 | 38018 ft | 508 kts | 339° |
| 2026-04-21 22:57 | 37.49210 | -119.86113 | 38012 ft | 508 kts | 339° |
| 2026-04-21 22:57 | 37.56012 | -119.88253 | 38031 ft | 508 kts | 339° |
| 2026-04-21 22:58 | 37.62887 | -119.90431 | 38007 ft | 510 kts | 339° |
| 2026-04-21 22:58 | 37.69784 | -119.92606 | 38003 ft | 511 kts | 339° |
| 2026-04-21 22:59 | 37.74898 | -119.94222 | 38000 ft | 511 kts | 340° |
| 2026-04-21 23:00 | 37.79175 | -119.95585 | 38009 ft | 510 kts | 340° |
| 2026-04-21 23:00 | 37.86055 | -119.97754 | 37999 ft | 509 kts | 340° |
| 2026-04-21 23:01 | 37.92927 | -119.99933 | 37998 ft | 509 kts | 340° |
| 2026-04-21 23:01 | 37.99799 | -120.02167 | 37492 ft | 500 kts | 349° |
| 2026-04-21 23:02 | 38.03157 | -120.03283 | 36455 ft | 516 kts | 344° |
| 2026-04-21 23:02 | 38.06599 | -120.04293 | 36256 ft | 512 kts | 342° |
| 2026-04-21 23:02 | 38.13521 | -120.06481 | 36244 ft | 513 kts | 341° |
| 2026-04-21 23:03 | 38.20468 | -120.08667 | 36234 ft | 516 kts | 344° |
| 2026-04-21 23:03 | 38.27625 | -120.10054 | 36546 ft | 524 kts | 351° |
| 2026-04-21 23:04 | 38.31249 | -120.10434 | 37037 ft | 521 kts | 352° |
| 2026-04-21 23:04 | 38.34816 | -120.10763 | 37543 ft | 520 kts | 353° |
| 2026-04-21 23:04 | 38.38421 | -120.11080 | 37885 ft | 520 kts | 353° |
| 2026-04-21 23:04 | 38.42036 | -120.11394 | 37941 ft | 521 kts | 353° |
| 2026-04-21 23:05 | 38.49234 | -120.12020 | 37926 ft | 517 kts | 352° |
| 2026-04-21 23:05 | 38.56405 | -120.12680 | 37907 ft | 517 kts | 353° |
| 2026-04-21 23:06 | 38.63585 | -120.13336 | 37892 ft | 517 kts | 353° |
| 2026-04-21 23:06 | 38.70717 | -120.13986 | 37876 ft | 517 kts | 353° |
| 2026-04-21 23:07 | 38.77894 | -120.14644 | 37865 ft | 517 kts | 353° |
| 2026-04-21 23:07 | 38.85080 | -120.15305 | 37866 ft | 518 kts | 353° |
| 2026-04-21 23:08 | 38.92262 | -120.15970 | 37872 ft | 518 kts | 353° |
| 2026-04-21 23:08 | 38.99473 | -120.16637 | 37871 ft | 520 kts | 353° |
| 2026-04-21 23:09 | 39.06629 | -120.17298 | 37918 ft | 520 kts | 353° |
| 2026-04-21 23:09 | 39.13855 | -120.17967 | 37953 ft | 523 kts | 353° |
| 2026-04-21 23:10 | 39.21136 | -120.18644 | 37962 ft | 525 kts | 353° |
| 2026-04-21 23:10 | 39.28433 | -120.19324 | 37970 ft | 526 kts | 353° |
| 2026-04-21 23:11 | 39.35697 | -120.20003 | 37972 ft | 528 kts | 353° |
| 2026-04-21 23:11 | 39.43037 | -120.20689 | 37889 ft | 529 kts | 353° |
| 2026-04-21 23:12 | 39.46898 | -120.21051 | 37880 ft | 529 kts | 353° |
| 2026-04-21 23:12 | 39.54250 | -120.21742 | 37877 ft | 531 kts | 353° |
| 2026-04-21 23:13 | 39.61578 | -120.22431 | 37866 ft | 531 kts | 353° |
| 2026-04-21 23:13 | 39.68952 | -120.23126 | 37875 ft | 531 kts | 353° |
| 2026-04-21 23:14 | 39.76328 | -120.23824 | 37866 ft | 532 kts | 353° |
| 2026-04-21 23:14 | 39.83703 | -120.24521 | 37858 ft | 532 kts | 353° |
| 2026-04-21 23:15 | 39.91037 | -120.25220 | 37859 ft | 532 kts | 354° |
| 2026-04-21 23:15 | 39.98418 | -120.25920 | 37851 ft | 532 kts | 354° |
| 2026-04-21 23:16 | 40.05756 | -120.26617 | 37846 ft | 527 kts | 354° |
| 2026-04-21 23:16 | 40.13063 | -120.27318 | 37855 ft | 527 kts | 353° |
| 2026-04-21 23:17 | 40.20378 | -120.28019 | 37866 ft | 527 kts | 354° |
| 2026-04-21 23:17 | 40.27637 | -120.28716 | 37894 ft | 527 kts | 354° |
| 2026-04-21 23:18 | 40.34943 | -120.29418 | 37898 ft | 527 kts | 354° |
| 2026-04-21 23:18 | 40.42255 | -120.30122 | 37894 ft | 527 kts | 354° |
| 2026-04-21 23:19 | 40.49578 | -120.30830 | 37888 ft | 528 kts | 354° |
| 2026-04-21 23:19 | 40.56856 | -120.31534 | 37875 ft | 529 kts | 354° |
| 2026-04-21 23:20 | 40.64195 | -120.32245 | 37860 ft | 528 kts | 354° |
| 2026-04-21 23:20 | 40.71528 | -120.32957 | 37850 ft | 529 kts | 354° |
| 2026-04-21 23:21 | 40.78864 | -120.33672 | 37849 ft | 529 kts | 354° |
| 2026-04-21 23:21 | 40.86157 | -120.34385 | 37839 ft | 530 kts | 354° |
| 2026-04-21 23:22 | 40.93512 | -120.35104 | 37855 ft | 530 kts | 354° |
| 2026-04-21 23:22 | 41.00854 | -120.35825 | 37858 ft | 530 kts | 354° |
| 2026-04-21 23:23 | 41.08210 | -120.36547 | 37838 ft | 530 kts | 354° |
| 2026-04-21 23:23 | 41.15525 | -120.37265 | 37869 ft | 532 kts | 354° |
| 2026-04-21 23:24 | 41.22907 | -120.37996 | 37879 ft | 533 kts | 354° |
| 2026-04-21 23:24 | 41.30304 | -120.38727 | 37892 ft | 533 kts | 354° |
| 2026-04-21 23:25 | 41.37698 | -120.39457 | 37904 ft | 532 kts | 354° |
| 2026-04-21 23:25 | 41.45030 | -120.40186 | 37884 ft | 532 kts | 354° |
| 2026-04-21 23:26 | 41.52433 | -120.40926 | 37868 ft | 534 kts | 354° |
| 2026-04-21 23:26 | 41.55398 | -120.41221 | 37895 ft | 534 kts | 354° |
| 2026-04-21 23:27 | 41.62793 | -120.41957 | 37878 ft | 532 kts | 354° |
| 2026-04-21 23:27 | 41.70126 | -120.42692 | 37877 ft | 532 kts | 354° |
| 2026-04-21 23:28 | 41.77501 | -120.43432 | 37883 ft | 531 kts | 354° |
| 2026-04-21 23:28 | 41.84877 | -120.44178 | 37869 ft | 532 kts | 354° |
| 2026-04-21 23:29 | 41.92259 | -120.44921 | 37884 ft | 532 kts | 354° |
| 2026-04-21 23:29 | 41.99636 | -120.45667 | 37892 ft | 531 kts | 354° |
| 2026-04-21 23:30 | 42.06953 | -120.46406 | 37904 ft | 531 kts | 354° |
| 2026-04-21 23:30 | 42.14318 | -120.47154 | 37916 ft | 531 kts | 354° |
| 2026-04-21 23:31 | 42.21689 | -120.47907 | 37858 ft | 532 kts | 355° |
| 2026-04-21 23:31 | 42.29081 | -120.48657 | 37860 ft | 533 kts | 355° |
| 2026-04-21 23:32 | 42.36429 | -120.49406 | 37858 ft | 533 kts | 355° |
| 2026-04-21 23:32 | 42.43789 | -120.50486 | 37847 ft | 532 kts | 349° |
| 2026-04-21 23:33 | 42.50996 | -120.52647 | 37838 ft | 530 kts | 342° |
| 2026-04-21 23:33 | 42.57949 | -120.55920 | 37814 ft | 528 kts | 335° |
| 2026-04-21 23:34 | 42.64648 | -120.59927 | 37835 ft | 531 kts | 333° |
| 2026-04-21 23:34 | 42.71387 | -120.64072 | 37834 ft | 532 kts | 333° |
| 2026-04-21 23:35 | 42.78128 | -120.68200 | 37827 ft | 531 kts | 333° |
| 2026-04-21 23:35 | 42.84879 | -120.72323 | 37827 ft | 531 kts | 333° |
| 2026-04-21 23:36 | 42.91620 | -120.76445 | 37825 ft | 530 kts | 333° |
| 2026-04-21 23:36 | 42.98354 | -120.80570 | 37817 ft | 530 kts | 333° |
| 2026-04-21 23:37 | 43.05030 | -120.84670 | 37827 ft | 530 kts | 333° |
| 2026-04-21 23:37 | 43.11754 | -120.88810 | 37812 ft | 530 kts | 333° |
| 2026-04-21 23:38 | 43.18481 | -120.92961 | 37811 ft | 530 kts | 333° |
| 2026-04-21 23:38 | 43.25161 | -120.97094 | 37816 ft | 531 kts | 333° |
| 2026-04-21 23:39 | 43.31893 | -121.01266 | 37796 ft | 531 kts | 333° |
| 2026-04-21 23:39 | 43.38639 | -121.05460 | 37824 ft | 533 kts | 333° |
| 2026-04-21 23:40 | 43.45387 | -121.09668 | 37821 ft | 532 kts | 333° |
| 2026-04-21 23:40 | 43.52091 | -121.13855 | 37829 ft | 532 kts | 333° |
| 2026-04-21 23:41 | 43.58835 | -121.18079 | 37828 ft | 532 kts | 333° |
| 2026-04-21 23:41 | 43.65581 | -121.22313 | 37827 ft | 532 kts | 333° |
| 2026-04-21 23:42 | 43.72323 | -121.26554 | 37839 ft | 532 kts | 333° |
| 2026-04-21 23:42 | 43.79051 | -121.30798 | 37850 ft | 530 kts | 333° |
| 2026-04-21 23:43 | 43.85710 | -121.35013 | 37859 ft | 529 kts | 333° |
| 2026-04-21 23:43 | 43.92407 | -121.39261 | 37856 ft | 529 kts | 333° |
| 2026-04-21 23:44 | 43.99081 | -121.43502 | 37863 ft | 526 kts | 333° |
| 2026-04-21 23:44 | 44.05743 | -121.47751 | 37855 ft | 528 kts | 333° |
| 2026-04-21 23:45 | 44.15726 | -121.54132 | 37876 ft | 528 kts | 333° |
| 2026-04-21 23:46 | 44.22396 | -121.58408 | 37877 ft | 528 kts | 333° |
| 2026-04-21 23:46 | 44.29069 | -121.62698 | 37892 ft | 528 kts | 333° |
| 2026-04-21 23:47 | 44.35736 | -121.66996 | 37901 ft | 528 kts | 333° |
| 2026-04-21 23:47 | 44.42355 | -121.71273 | 37904 ft | 527 kts | 333° |
| 2026-04-21 23:48 | 44.49011 | -121.75586 | 37896 ft | 525 kts | 333° |
| 2026-04-21 23:48 | 44.55636 | -121.79887 | 37905 ft | 524 kts | 333° |
| 2026-04-21 23:49 | 44.62255 | -121.84198 | 37912 ft | 524 kts | 333° |
| 2026-04-21 23:49 | 44.68861 | -121.88513 | 37924 ft | 523 kts | 333° |
| 2026-04-21 23:50 | 44.75405 | -121.92793 | 37913 ft | 522 kts | 333° |
| 2026-04-21 23:50 | 44.82006 | -121.97121 | 37905 ft | 525 kts | 333° |
| 2026-04-21 23:51 | 44.88621 | -122.01473 | 37926 ft | 525 kts | 333° |
| 2026-04-21 23:51 | 44.95238 | -122.05835 | 37927 ft | 525 kts | 333° |
| 2026-04-21 23:52 | 45.01802 | -122.10173 | 37928 ft | 525 kts | 333° |
| 2026-04-21 23:52 | 45.08408 | -122.14554 | 37928 ft | 524 kts | 333° |
| 2026-04-21 23:53 | 45.15011 | -122.18938 | 37938 ft | 524 kts | 333° |
| 2026-04-21 23:53 | 45.21603 | -122.23328 | 37940 ft | 523 kts | 333° |
| 2026-04-21 23:54 | 45.28142 | -122.27696 | 37946 ft | 522 kts | 333° |
| 2026-04-21 23:54 | 45.34713 | -122.32098 | 37808 ft | 522 kts | 333° |
| 2026-04-21 23:54 | 45.37995 | -122.34303 | 37537 ft | 521 kts | 333° |
| 2026-04-21 23:55 | 45.41273 | -122.36511 | 37282 ft | 520 kts | 333° |
| 2026-04-21 23:55 | 45.44538 | -122.38712 | 37021 ft | 519 kts | 333° |
| 2026-04-21 23:55 | 45.47754 | -122.40881 | 36759 ft | 518 kts | 333° |
| 2026-04-21 23:55 | 45.51021 | -122.43087 | 36345 ft | 520 kts | 333° |
| 2026-04-21 23:56 | 45.54298 | -122.45302 | 35753 ft | 522 kts | 333° |
| 2026-04-21 23:56 | 45.57592 | -122.47532 | 35050 ft | 525 kts | 333° |
| 2026-04-21 23:56 | 45.60903 | -122.49777 | 34316 ft | 530 kts | 333° |
| 2026-04-21 23:56 | 45.64252 | -122.52050 | 33475 ft | 535 kts | 333° |
| 2026-04-21 23:57 | 45.67629 | -122.54347 | 32618 ft | 539 kts | 333° |
| 2026-04-21 23:57 | 45.71063 | -122.56571 | 31778 ft | 543 kts | 336° |
| 2026-04-21 23:57 | 45.74672 | -122.58510 | 30936 ft | 547 kts | 341° |
| 2026-04-21 23:57 | 45.78382 | -122.60060 | 30090 ft | 550 kts | 347° |
| 2026-04-21 23:58 | 45.82266 | -122.61240 | 29107 ft | 552 kts | 351° |
| 2026-04-21 23:58 | 45.86030 | -122.62160 | 28491 ft | 546 kts | 352° |
| 2026-04-21 23:58 | 45.89761 | -122.63015 | 27844 ft | 540 kts | 353° |
| 2026-04-21 23:58 | 45.93459 | -122.63868 | 27210 ft | 535 kts | 352° |
| 2026-04-21 23:59 | 45.97107 | -122.64733 | 26573 ft | 529 kts | 352° |
| 2026-04-21 23:59 | 46.00715 | -122.65610 | 25945 ft | 523 kts | 352° |
| 2026-04-21 23:59 | 46.04283 | -122.66494 | 25303 ft | 518 kts | 352° |
| 2026-04-21 23:59 | 46.07814 | -122.67371 | 24608 ft | 513 kts | 352° |
| 2026-04-22 00:00 | 46.11316 | -122.68203 | 23977 ft | 508 kts | 353° |
| 2026-04-22 00:00 | 46.14602 | -122.68869 | 23353 ft | 503 kts | 354° |
| 2026-04-22 00:00 | 46.15894 | -122.69118 | 23076 ft | 502 kts | 354° |
| 2026-04-22 00:00 | 46.19329 | -122.69762 | 22370 ft | 495 kts | 354° |
| 2026-04-22 00:01 | 46.22685 | -122.70401 | 21667 ft | 476 kts | 354° |
| 2026-04-22 00:01 | 46.25958 | -122.71041 | 21361 ft | 473 kts | 354° |
| 2026-04-22 00:01 | 46.29210 | -122.71685 | 20873 ft | 470 kts | 354° |
| 2026-04-22 00:01 | 46.32441 | -122.72184 | 20388 ft | 464 kts | 357° |
| 2026-04-22 00:02 | 46.35646 | -122.72420 | 19895 ft | 459 kts | 359° |
| 2026-04-22 00:02 | 46.38824 | -122.72546 | 19405 ft | 454 kts | 0° |
| 2026-04-22 00:02 | 46.41930 | -122.72643 | 18933 ft | 450 kts | 0° |
| 2026-04-22 00:02 | 46.45046 | -122.72739 | 18458 ft | 445 kts | 0° |
| 2026-04-22 00:03 | 46.48106 | -122.72840 | 17934 ft | 436 kts | 0° |
| 2026-04-22 00:03 | 46.51116 | -122.72936 | 17401 ft | 428 kts | 359° |
| 2026-04-22 00:03 | 46.54066 | -122.73039 | 16925 ft | 420 kts | 359° |
| 2026-04-22 00:03 | 46.56964 | -122.73146 | 16440 ft | 414 kts | 359° |
| 2026-04-22 00:04 | 46.59831 | -122.73252 | 15982 ft | 409 kts | 359° |
| 2026-04-22 00:04 | 46.61711 | -122.73322 | 15673 ft | 407 kts | 359° |
| 2026-04-22 00:04 | 46.64510 | -122.73424 | 15334 ft | 397 kts | 359° |
| 2026-04-22 00:04 | 46.68080 | -122.73553 | 15114 ft | 379 kts | 359° |
| 2026-04-22 00:05 | 46.70673 | -122.73648 | 14944 ft | 367 kts | 359° |
| 2026-04-22 00:05 | 46.73187 | -122.73739 | 14782 ft | 356 kts | 358° |
| 2026-04-22 00:05 | 46.75623 | -122.73827 | 14640 ft | 345 kts | 359° |
| 2026-04-22 00:05 | 46.77973 | -122.73496 | 14483 ft | 336 kts | 16° |
| 2026-04-22 00:06 | 46.79412 | -122.72698 | 14351 ft | 333 kts | 28° |
| 2026-04-22 00:06 | 46.81317 | -122.70791 | 13970 ft | 332 kts | 40° |
| 2026-04-22 00:06 | 46.83089 | -122.68637 | 13585 ft | 331 kts | 41° |
| 2026-04-22 00:06 | 46.84846 | -122.66463 | 13200 ft | 330 kts | 40° |
| 2026-04-22 00:07 | 46.87213 | -122.63705 | 12729 ft | 327 kts | 38° |
| 2026-04-22 00:07 | 46.88426 | -122.62326 | 12483 ft | 325 kts | 38° |
| 2026-04-22 00:07 | 46.90206 | -122.60306 | 12132 ft | 323 kts | 38° |
| 2026-04-22 00:07 | 46.92516 | -122.57699 | 11984 ft | 308 kts | 35° |
| 2026-04-22 00:08 | 46.93697 | -122.56610 | 11979 ft | 299 kts | 28° |
| 2026-04-22 00:08 | 46.95616 | -122.55393 | 11985 ft | 304 kts | 19° |
| 2026-04-22 00:08 | 46.97650 | -122.54467 | 11986 ft | 306 kts | 16° |
| 2026-04-22 00:08 | 46.99704 | -122.53599 | 11981 ft | 308 kts | 15° |
| 2026-04-22 00:09 | 47.01759 | -122.52731 | 11982 ft | 308 kts | 16° |
| 2026-04-22 00:09 | 47.03816 | -122.51849 | 11981 ft | 308 kts | 16° |
| 2026-04-22 00:09 | 47.05874 | -122.50956 | 11982 ft | 308 kts | 16° |
| 2026-04-22 00:09 | 47.07923 | -122.50199 | 11979 ft | 308 kts | 13° |
| 2026-04-22 00:10 | 47.10043 | -122.49669 | 11815 ft | 310 kts | 9° |
| 2026-04-22 00:10 | 47.12179 | -122.49255 | 11454 ft | 309 kts | 8° |
| 2026-04-22 00:10 | 47.14309 | -122.48871 | 11117 ft | 307 kts | 7° |
| 2026-04-22 00:10 | 47.16414 | -122.48496 | 10786 ft | 303 kts | 7° |
| 2026-04-22 00:11 | 47.18496 | -122.48120 | 10478 ft | 299 kts | 7° |
| 2026-04-22 00:11 | 47.20546 | -122.47775 | 10169 ft | 295 kts | 6° |
| 2026-04-22 00:11 | 47.22576 | -122.47467 | 9873 ft | 291 kts | 6° |
| 2026-04-22 00:11 | 47.24580 | -122.47169 | 9553 ft | 288 kts | 6° |
| 2026-04-22 00:12 | 47.26542 | -122.46875 | 9243 ft | 286 kts | 6° |
| 2026-04-22 00:12 | 47.28523 | -122.46574 | 8936 ft | 285 kts | 6° |
| 2026-04-22 00:12 | 47.30491 | -122.46275 | 8625 ft | 284 kts | 5° |
| 2026-04-22 00:12 | 47.32456 | -122.45974 | 8427 ft | 278 kts | 5° |
| 2026-04-22 00:13 | 47.34336 | -122.45687 | 8373 ft | 266 kts | 5° |
| 2026-04-22 00:13 | 47.36148 | -122.45541 | 8255 ft | 258 kts | 0° |
| 2026-04-22 00:13 | 47.37943 | -122.45525 | 7965 ft | 258 kts | 359° |
| 2026-04-22 00:13 | 47.39738 | -122.45535 | 7699 ft | 258 kts | 358° |
| 2026-04-22 00:14 | 47.41529 | -122.45546 | 7437 ft | 257 kts | 359° |
| 2026-04-22 00:14 | 47.43292 | -122.45554 | 7163 ft | 256 kts | 358° |
| 2026-04-22 00:14 | 47.45065 | -122.45557 | 6900 ft | 254 kts | 359° |
| 2026-04-22 00:14 | 47.46824 | -122.45555 | 6639 ft | 252 kts | 358° |
| 2026-04-22 00:15 | 47.48565 | -122.45558 | 6387 ft | 248 kts | 358° |
| 2026-04-22 00:15 | 47.50284 | -122.45559 | 6097 ft | 244 kts | 359° |
| 2026-04-22 00:15 | 47.52013 | -122.45573 | 6001 ft | 251 kts | 358° |
| 2026-04-22 00:15 | 47.53771 | -122.45609 | 6000 ft | 253 kts | 358° |
| 2026-04-22 00:16 | 47.55534 | -122.45656 | 5927 ft | 254 kts | 358° |
| 2026-04-22 00:16 | 47.57274 | -122.45700 | 5675 ft | 253 kts | 358° |
| 2026-04-22 00:16 | 47.59019 | -122.45742 | 5394 ft | 250 kts | 358° |
| 2026-04-22 00:16 | 47.60757 | -122.45781 | 5141 ft | 249 kts | 358° |
| 2026-04-22 00:17 | 47.62480 | -122.45823 | 4990 ft | 247 kts | 357° |
| 2026-04-22 00:17 | 47.64164 | -122.45861 | 4984 ft | 235 kts | 358° |
| 2026-04-22 00:17 | 47.65785 | -122.45899 | 4710 ft | 234 kts | 357° |
| 2026-04-22 00:17 | 47.67409 | -122.45937 | 4417 ft | 233 kts | 358° |
| 2026-04-22 00:18 | 47.69011 | -122.45973 | 4168 ft | 227 kts | 357° |
| 2026-04-22 00:18 | 47.70538 | -122.46006 | 3984 ft | 217 kts | 358° |
| 2026-04-22 00:18 | 47.71985 | -122.45991 | 3973 ft | 200 kts | 6° |
| 2026-04-22 00:18 | 47.73186 | -122.45098 | 3956 ft | 196 kts | 45° |
| 2026-04-22 00:19 | 47.73915 | -122.43404 | 3987 ft | 196 kts | 64° |
| 2026-04-22 00:19 | 47.74278 | -122.41452 | 4007 ft | 197 kts | 81° |
| 2026-04-22 00:19 | 47.74433 | -122.39432 | 3998 ft | 197 kts | 84° |
| 2026-04-22 00:19 | 47.74558 | -122.37413 | 3992 ft | 194 kts | 85° |
| 2026-04-22 00:20 | 47.74465 | -122.35428 | 3970 ft | 194 kts | 115° |
| 2026-04-22 00:20 | 47.73581 | -122.34000 | 3992 ft | 192 kts | 144° |
| 2026-04-22 00:20 | 47.72467 | -122.32908 | 3986 ft | 192 kts | 150° |
| 2026-04-22 00:20 | 47.71341 | -122.31853 | 3990 ft | 191 kts | 148° |
| 2026-04-22 00:21 | 47.70205 | -122.30834 | 3989 ft | 190 kts | 159° |
| 2026-04-22 00:21 | 47.68918 | -122.30491 | 3998 ft | 189 kts | 179° |
| 2026-04-22 00:21 | 47.67604 | -122.30493 | 4008 ft | 188 kts | 183° |
| 2026-04-22 00:21 | 47.66298 | -122.30541 | 3995 ft | 188 kts | 183° |
| 2026-04-22 00:22 | 47.64984 | -122.30587 | 3991 ft | 189 kts | 182° |
| 2026-04-22 00:22 | 47.63663 | -122.30614 | 3821 ft | 191 kts | 183° |
| 2026-04-22 00:22 | 47.62302 | -122.30639 | 3374 ft | 200 kts | 182° |
| 2026-04-22 00:22 | 47.60895 | -122.30660 | 3021 ft | 202 kts | 182° |
| 2026-04-22 00:23 | 47.59553 | -122.30672 | 2988 ft | 189 kts | 182° |
| 2026-04-22 00:23 | 47.58251 | -122.30682 | 2978 ft | 186 kts | 182° |
| 2026-04-22 00:23 | 47.56952 | -122.30688 | 2795 ft | 189 kts | 181° |
| 2026-04-22 00:23 | 47.55608 | -122.30696 | 2344 ft | 196 kts | 181° |
| 2026-04-22 00:24 | 47.54263 | -122.30705 | 2032 ft | 190 kts | 181° |
| 2026-04-22 00:24 | 47.52983 | -122.30714 | 1763 ft | 177 kts | 181° |
| 2026-04-22 00:24 | 47.51801 | -122.30724 | 1533 ft | 163 kts | 181° |
| 2026-04-22 00:24 | 47.50710 | -122.30734 | 1319 ft | 151 kts | 181° |
| 2026-04-22 00:25 | 47.49701 | -122.30744 | 1101 ft | 139 kts | 180° |
| 2026-04-22 00:25 | 47.48768 | -122.30752 | 943 ft | 135 kts | 181° |
| 2026-04-22 00:25 | 47.47829 | -122.30757 | 751 ft | 135 kts | 183° |
| 2026-04-22 00:25 | 47.46903 | -122.30766 | 564 ft | 133 kts | 183° |
| 2026-04-22 00:26 | 47.45975 | -122.30771 | 409 ft | 132 kts | 182° |
| 2026-04-22 00:26 | 47.45176 | -122.30790 | 402 ft | 90 kts | 180° |
| 2026-04-22 00:26 | 47.44734 | -122.30794 | 401 ft | 38 kts | 180° |
| 2026-04-22 00:26 | 47.44592 | -122.30710 | 400 ft | 14 kts | 113° |
| 2026-04-22 00:27 | 47.44581 | -122.30682 | 399 ft | 0 kts | 127° |
| 2026-04-22 00:27 | 47.44537 | -122.30643 | 402 ft | 15 kts | 165° |
| 2026-04-22 00:28 | 47.44419 | -122.30633 | 401 ft | 18 kts | 180° |
| 2026-04-22 00:28 | 47.44282 | -122.30634 | 401 ft | 21 kts | 180° |
| 2026-04-22 00:28 | 47.44128 | -122.30636 | 399 ft | 23 kts | 180° |
| 2026-04-22 00:28 | 47.44009 | -122.30621 | 401 ft | 12 kts | 161° |
| 2026-04-22 00:29 | 47.43947 | -122.30518 | 400 ft | 15 kts | 122° |
| 2026-04-22 00:29 | 47.43925 | -122.30467 | 400 ft | 4 kts | 127° |
| 2026-04-22 00:29 | 47.43912 | -122.30440 | 400 ft | 2 kts | 125° |
| 2026-04-22 00:29 | 47.43905 | -122.30425 | 401 ft | 0 kts | 125° |